createdAt,value
2022-07-28T00:00:42.535Z,4.80
2022-07-28T00:03:10.813Z,4.05
2022-07-28T00:05:39.149Z,5.03
2022-07-28T00:08:07.813Z,6.93
2022-07-28T00:10:37.588Z,3.95
2022-07-28T00:13:06.971Z,4.60
2022-07-28T00:15:35.193Z,6.75
2022-07-28T00:18:03.201Z,8.02
2022-07-28T00:20:31.730Z,5.03
2022-07-28T00:23:00.491Z,4.65
2022-07-28T00:25:29.471Z,2.97
2022-07-28T00:27:59.007Z,4.10
2022-07-28T00:30:26.935Z,4.68
2022-07-28T00:32:56.019Z,4.18
2022-07-28T00:35:31.030Z,3.72
2022-07-28T00:38:00.980Z,5.50
2022-07-28T00:40:45.461Z,3.72
2022-07-28T00:43:15.367Z,6.10
2022-07-28T00:45:44.880Z,5.65
2022-07-28T00:48:13.071Z,4.60
2022-07-28T00:50:41.879Z,4.13
2022-07-28T00:53:10.424Z,5.43
2022-07-28T00:56:05.437Z,4.60
2022-07-28T00:58:30.409Z,2.20
2022-07-28T01:00:58.852Z,7.28
2022-07-28T01:03:27.721Z,5.85
2022-07-28T01:06:05.784Z,4.57
2022-07-28T01:08:49.222Z,5.65
2022-07-28T01:11:28.923Z,3.00
2022-07-28T01:14:07.451Z,4.35
2022-07-28T01:16:40.521Z,4.20
2022-07-28T01:19:19.047Z,2.88
2022-07-28T01:21:49.023Z,6.97
2022-07-28T01:24:26.280Z,5.15
2022-07-28T01:27:00.706Z,4.15
2022-07-28T01:30:07.059Z,5.78
2022-07-28T01:32:43.198Z,3.60
2022-07-28T01:35:15.682Z,3.33
2022-07-28T01:37:48.349Z,2.75
2022-07-28T01:40:18.689Z,4.20
2022-07-28T01:42:49.853Z,5.15
2022-07-28T01:45:20.953Z,2.50
2022-07-28T01:47:52.572Z,3.72
2022-07-28T01:50:27.006Z,8.27
2022-07-28T01:53:02.289Z,6.50
2022-07-28T01:55:32.845Z,3.28
2022-07-28T01:58:05.733Z,4.32
2022-07-28T02:00:35.049Z,4.43
2022-07-28T02:03:07.170Z,2.67
2022-07-28T02:05:37.578Z,4.88
2022-07-28T02:08:09.191Z,4.63
2022-07-28T02:10:42.126Z,5.00
2022-07-28T02:13:12.411Z,3.47
2022-07-28T02:15:42.139Z,6.93
2022-07-28T02:18:12.525Z,3.55
2022-07-28T02:20:41.773Z,3.72
2022-07-28T02:23:11.171Z,2.95
2022-07-28T02:25:42.169Z,4.63
2022-07-28T02:28:13.317Z,6.97
2022-07-28T02:30:48.050Z,4.18
2022-07-28T02:33:36.442Z,3.47
2022-07-28T02:36:15.211Z,2.45
2022-07-28T02:38:47.464Z,5.20
2022-07-28T02:41:20.050Z,1.98
2022-07-28T02:43:53.631Z,1.75
2022-07-28T02:46:29.869Z,2.17
2022-07-28T02:49:07.941Z,3.38
2022-07-28T02:51:39.504Z,2.95
2022-07-28T02:54:08.498Z,4.53
2022-07-28T02:56:39.430Z,7.18
2022-07-28T02:59:14.483Z,6.03
2022-07-28T03:01:45.213Z,4.90
2022-07-28T03:04:17.195Z,5.95
2022-07-28T03:06:48.253Z,4.47
2022-07-28T03:09:16.939Z,4.53
2022-07-28T03:11:53.449Z,4.25
2022-07-28T03:14:21.463Z,2.40
2022-07-28T03:16:55.112Z,3.88
2022-07-28T03:19:24.909Z,2.78
2022-07-28T03:21:54.112Z,6.30
2022-07-28T03:24:29.716Z,5.55
2022-07-28T03:27:05.566Z,11.25
2022-07-28T03:29:34.944Z,5.15
2022-07-28T03:32:03.314Z,6.00
2022-07-28T03:34:32.984Z,3.88
2022-07-28T03:37:04.641Z,3.30
2022-07-28T03:39:38.874Z,4.40
2022-07-28T03:42:07.805Z,5.57
2022-07-28T03:44:36.726Z,4.65
2022-07-28T03:47:06.954Z,3.97
2022-07-28T03:49:36.400Z,10.50
2022-07-28T03:52:04.602Z,5.40
2022-07-28T03:54:32.499Z,1.95
2022-07-28T03:57:00.494Z,6.05
2022-07-28T03:59:28.465Z,2.75
2022-07-28T04:01:57.424Z,3.42
2022-07-28T04:04:26.357Z,3.40
2022-07-28T04:06:55.922Z,3.08
2022-07-28T04:09:24.208Z,6.63
2022-07-28T04:11:52.126Z,5.38
2022-07-28T04:14:21.531Z,4.75
2022-07-28T04:16:50.337Z,3.47
2022-07-28T04:19:18.689Z,3.90
2022-07-28T04:21:47.078Z,5.50
2022-07-28T04:24:16.778Z,1.98
2022-07-28T04:26:45.850Z,2.83
2022-07-28T04:29:14.862Z,8.00
2022-07-28T04:31:52.089Z,2.38
2022-07-28T04:34:21.888Z,4.78
2022-07-28T04:36:52.163Z,4.53
2022-07-28T04:39:22.578Z,5.22
2022-07-28T04:41:53.433Z,5.75
2022-07-28T04:44:22.466Z,3.97
2022-07-28T04:46:51.505Z,2.42
2022-07-28T04:49:22.260Z,3.78
2022-07-28T04:51:53.250Z,2.67
2022-07-28T04:54:28.673Z,4.30
2022-07-28T04:56:59.713Z,6.97
2022-07-28T04:59:36.606Z,5.60
2022-07-28T05:02:08.186Z,5.57
2022-07-28T05:04:38.014Z,6.40
2022-07-28T05:07:12.886Z,3.42
2022-07-28T05:09:43.410Z,3.90
2022-07-28T05:12:11.596Z,8.10
2022-07-28T05:14:39.801Z,6.43
2022-07-28T05:17:09.155Z,4.93
2022-07-28T05:19:38.217Z,7.20
2022-07-28T05:22:07.156Z,3.95
2022-07-28T05:24:35.484Z,3.53
2022-07-28T05:27:05.023Z,3.70
2022-07-28T05:29:35.117Z,4.88
2022-07-28T05:32:16.202Z,4.70
2022-07-28T05:34:45.819Z,3.50
2022-07-28T05:37:13.979Z,3.78
2022-07-28T05:39:42.120Z,5.82
2022-07-28T05:42:11.672Z,3.00
2022-07-28T05:44:39.640Z,7.00
2022-07-28T05:47:08.289Z,7.65
2022-07-28T05:49:36.305Z,6.85
2022-07-28T05:52:04.637Z,5.45
2022-07-28T05:54:32.745Z,5.90
2022-07-28T05:57:00.705Z,3.10
2022-07-28T05:59:30.045Z,6.43
2022-07-28T06:01:57.988Z,6.28
2022-07-28T06:04:27.997Z,3.42
2022-07-28T06:06:56.778Z,6.88
2022-07-28T06:09:24.970Z,7.68
2022-07-28T06:11:52.966Z,6.88
2022-07-28T06:14:21.372Z,7.40
2022-07-28T06:16:51.686Z,7.30
2022-07-28T06:19:19.743Z,8.32
2022-07-28T06:21:48.020Z,6.85
2022-07-28T06:24:16.287Z,9.20
2022-07-28T06:26:45.143Z,6.80
2022-07-28T06:29:13.953Z,8.90
2022-07-28T06:31:42.206Z,10.18
2022-07-28T06:34:11.978Z,12.60
2022-07-28T06:36:40.136Z,12.88
2022-07-28T06:39:08.889Z,11.20
2022-07-28T06:41:41.569Z,5.68
2022-07-28T06:44:12.283Z,3.60
2022-07-28T06:46:40.717Z,2.75
2022-07-28T06:49:08.797Z,4.93
2022-07-28T06:51:38.301Z,5.93
2022-07-28T06:54:11.020Z,5.75
2022-07-28T06:56:39.601Z,3.30
2022-07-28T06:59:08.137Z,7.00
2022-07-28T07:01:36.116Z,8.75
2022-07-28T07:04:04.239Z,20.73
2022-07-28T07:06:32.162Z,20.25
2022-07-28T07:09:01.432Z,6.55
2022-07-28T07:11:29.419Z,11.55
2022-07-28T07:13:57.421Z,8.07
2022-07-28T07:16:25.637Z,8.18
2022-07-28T07:18:53.823Z,9.02
2022-07-28T07:21:21.884Z,8.52
2022-07-28T07:23:51.047Z,6.57
2022-07-28T07:26:20.643Z,7.63
2022-07-28T07:28:48.665Z,20.38
2022-07-28T07:31:16.841Z,79.80
2022-07-28T07:33:44.896Z,48.92
2022-07-28T07:36:12.850Z,70.47
2022-07-28T07:38:41.091Z,51.58
2022-07-28T07:41:09.119Z,52.50
2022-07-28T07:43:38.937Z,72.38
2022-07-28T07:46:08.275Z,69.70
2022-07-28T07:48:36.361Z,66.60
2022-07-28T07:51:04.767Z,90.72
2022-07-28T07:53:33.003Z,60.38
2022-07-28T07:56:01.397Z,30.30
2022-07-28T07:58:29.984Z,22.70
2022-07-28T08:01:40.818Z,13.65
2022-07-28T08:04:10.417Z,35.58
2022-07-28T08:06:38.534Z,10.13
2022-07-28T08:09:07.833Z,6.22
2022-07-28T08:11:35.919Z,15.45
2022-07-28T08:14:04.159Z,23.30
2022-07-28T08:16:33.936Z,26.67
2022-07-28T08:19:06.610Z,17.10
2022-07-28T08:21:47.307Z,12.74
2022-07-28T08:24:27.669Z,10.60
2022-07-28T08:27:03.788Z,10.93
2022-07-28T08:29:33.475Z,6.95
2022-07-28T08:32:03.930Z,8.05
2022-07-28T08:34:34.011Z,8.75
2022-07-28T08:37:05.856Z,12.52
2022-07-28T08:39:36.266Z,9.15
2022-07-28T08:42:07.770Z,16.85
2022-07-28T08:44:44.299Z,10.52
2022-07-28T08:47:12.867Z,5.13
2022-07-28T08:49:43.048Z,4.93
2022-07-28T08:52:14.293Z,3.35
2022-07-28T08:54:45.941Z,2.95
2022-07-28T08:57:18.754Z,3.50
2022-07-28T08:59:48.954Z,3.42
2022-07-28T09:02:19.688Z,5.38
2022-07-28T09:04:48.648Z,7.15
2022-07-28T09:07:17.983Z,5.43
2022-07-28T09:09:49.463Z,3.42
2022-07-28T09:12:18.495Z,4.40
2022-07-28T09:14:47.343Z,5.70
2022-07-28T09:17:15.382Z,3.92
2022-07-28T09:19:43.446Z,3.25
2022-07-28T09:22:11.421Z,7.45
2022-07-28T09:24:44.535Z,8.07
2022-07-28T09:27:15.161Z,5.60
2022-07-28T09:29:47.258Z,3.40
2022-07-28T09:32:16.872Z,4.18
2022-07-28T09:34:46.390Z,4.82
2022-07-28T09:37:24.733Z,6.05
2022-07-28T09:39:59.306Z,3.33
2022-07-28T09:42:27.854Z,3.65
2022-07-28T09:45:22.280Z,2.92
2022-07-28T09:48:10.247Z,2.88
2022-07-28T09:50:39.550Z,3.03
2022-07-28T09:53:27.582Z,6.90
2022-07-28T09:55:59.971Z,1.45
2022-07-28T09:58:30.476Z,3.92
2022-07-28T10:01:07.195Z,4.95
2022-07-28T10:03:36.980Z,5.30
2022-07-28T10:06:08.620Z,1.55
2022-07-28T10:09:26.667Z,1.15
2022-07-28T10:12:15.869Z,1.63
2022-07-28T10:14:43.839Z,1.85
2022-07-28T10:17:11.803Z,1.80
2022-07-28T10:19:40.874Z,2.63
2022-07-28T10:22:09.589Z,2.85
2022-07-28T10:24:41.121Z,2.97
2022-07-28T10:27:10.940Z,2.33
2022-07-28T10:29:41.316Z,2.33
2022-07-28T10:32:13.505Z,2.30
2022-07-28T10:34:51.885Z,1.42
2022-07-28T10:37:25.072Z,3.08
2022-07-28T10:40:10.587Z,2.60
2022-07-28T10:42:43.944Z,3.70
2022-07-28T10:45:13.769Z,1.40
2022-07-28T10:47:43.274Z,2.80
2022-07-28T10:50:11.832Z,3.97
2022-07-28T10:52:48.319Z,1.33
2022-07-28T10:55:32.508Z,2.92
2022-07-28T10:58:24.763Z,2.65
2022-07-28T11:00:57.151Z,3.25
2022-07-28T11:03:39.974Z,1.83
2022-07-28T11:06:28.605Z,2.92
2022-07-28T11:08:58.279Z,3.15
2022-07-28T11:11:46.673Z,4.78
2022-07-28T11:14:37.318Z,2.83
2022-07-28T11:17:24.360Z,2.47
2022-07-28T11:22:44.931Z,3.50
2022-07-28T11:25:19.185Z,1.77
2022-07-28T11:28:05.908Z,2.40
2022-07-28T11:30:56.258Z,6.82
2022-07-28T11:33:27.447Z,89.82
2022-07-28T11:36:02.202Z,9.25
2022-07-28T11:38:30.907Z,6.70
2022-07-28T11:40:58.801Z,3.53
2022-07-28T11:43:38.934Z,5.05
2022-07-28T11:46:24.871Z,3.20
2022-07-28T11:49:29.558Z,1.15
2022-07-28T11:52:15.703Z,4.35
2022-07-28T11:54:50.583Z,0.88
2022-07-28T11:57:19.644Z,4.63
2022-07-28T11:59:50.632Z,1.15
2022-07-28T12:02:23.892Z,0.82
2022-07-28T12:05:08.185Z,1.73
2022-07-28T12:07:39.287Z,1.40
2022-07-28T12:13:27.729Z,1.23
2022-07-28T12:15:55.927Z,3.20
2022-07-28T12:18:25.629Z,2.83
2022-07-28T12:21:00.548Z,4.15
2022-07-28T12:23:45.643Z,3.45
2022-07-28T12:26:31.837Z,6.65
2022-07-28T12:29:03.125Z,3.83
2022-07-28T12:31:39.416Z,9.10
2022-07-28T12:34:13.779Z,5.47
2022-07-28T12:36:42.552Z,6.22
2022-07-28T12:39:13.213Z,4.60
2022-07-28T12:41:42.176Z,7.93
2022-07-28T12:44:11.474Z,8.85
2022-07-28T12:46:40.267Z,7.45
2022-07-28T12:49:24.346Z,4.90
2022-07-28T12:51:53.084Z,6.28
2022-07-28T12:54:35.617Z,4.50
2022-07-28T12:57:04.271Z,2.85
2022-07-28T12:59:40.349Z,5.63
2022-07-28T13:02:09.632Z,4.05
2022-07-28T13:04:49.445Z,3.97
2022-07-28T13:07:30.621Z,7.32
2022-07-28T13:10:03.621Z,3.75
2022-07-28T13:12:34.084Z,3.03
2022-07-28T13:15:04.089Z,5.00
2022-07-28T13:17:54.981Z,5.65
2022-07-28T13:20:25.419Z,6.75
2022-07-28T13:22:54.305Z,5.07
2022-07-28T13:25:22.741Z,3.47
2022-07-28T13:27:55.084Z,7.00
2022-07-28T13:30:24.079Z,4.72
2022-07-28T13:32:54.635Z,5.65
2022-07-28T13:35:24.541Z,6.80
2022-07-28T13:37:52.644Z,7.55
2022-07-28T13:40:20.799Z,7.47
2022-07-28T13:42:52.982Z,5.68
2022-07-28T13:45:24.642Z,5.28
2022-07-28T13:47:53.625Z,4.32
2022-07-28T13:50:22.426Z,3.55
2022-07-28T13:52:53.692Z,4.07
2022-07-28T13:55:22.719Z,3.92
2022-07-28T13:57:51.857Z,4.65
2022-07-28T14:00:21.082Z,5.10
2022-07-28T14:02:51.107Z,7.10
2022-07-28T14:05:19.503Z,5.03
2022-07-28T14:07:49.251Z,4.53
2022-07-28T14:10:19.063Z,3.78
2022-07-28T14:12:47.318Z,2.33
2022-07-28T14:15:16.339Z,4.15
2022-07-28T14:17:45.847Z,2.75
2022-07-28T14:20:15.787Z,1.42
2022-07-28T14:22:44.286Z,4.03
2022-07-28T14:25:20.881Z,3.88
2022-07-28T14:27:51.850Z,4.60
2022-07-28T14:30:20.851Z,3.47
2022-07-28T14:32:49.385Z,5.25
2022-07-28T14:35:17.877Z,6.43
2022-07-28T14:38:35.010Z,4.90
2022-07-28T14:40:38.044Z,10.63
2022-07-28T14:43:09.365Z,10.07
2022-07-28T14:46:00.560Z,7.13
2022-07-28T14:48:26.430Z,3.75
2022-07-28T14:50:55.550Z,4.30
2022-07-28T14:53:24.228Z,2.50
2022-07-28T14:55:57.085Z,8.13
2022-07-28T14:58:27.325Z,13.68
2022-07-28T15:00:56.065Z,11.23
2022-07-28T15:03:35.827Z,4.57
2022-07-28T15:06:04.820Z,5.25
2022-07-28T15:08:33.496Z,13.25
2022-07-28T15:11:01.653Z,6.65
2022-07-28T15:13:32.185Z,5.97
2022-07-28T15:16:00.783Z,3.13
2022-07-28T15:18:29.470Z,5.75
2022-07-28T15:20:57.421Z,5.00
2022-07-28T15:23:26.522Z,7.18
2022-07-28T15:25:56.119Z,11.40
2022-07-28T15:28:24.605Z,4.78
2022-07-28T15:30:54.547Z,7.93
2022-07-28T15:33:25.699Z,10.02
2022-07-28T15:35:57.962Z,3.13
2022-07-28T15:38:31.589Z,8.90
2022-07-28T15:41:01.122Z,4.95
2022-07-28T15:43:30.983Z,7.55
2022-07-28T15:46:08.376Z,7.22
2022-07-28T15:48:39.640Z,19.08
2022-07-28T15:51:09.827Z,61.78
2022-07-28T15:53:39.310Z,58.85
2022-07-28T15:56:07.975Z,45.17
2022-07-28T15:58:36.853Z,48.38
2022-07-28T16:01:07.332Z,36.72
2022-07-28T16:03:37.242Z,51.10
2022-07-28T16:06:07.009Z,41.72
2022-07-28T16:08:38.241Z,43.83
2022-07-28T16:11:06.771Z,41.72
2022-07-28T16:13:37.704Z,30.90
2022-07-28T16:16:12.797Z,20.63
2022-07-28T16:18:46.436Z,20.20
2022-07-28T16:21:19.463Z,52.33
2022-07-28T16:23:54.117Z,75.93
2022-07-28T16:26:26.368Z,50.35
2022-07-28T16:28:59.008Z,57.65
2022-07-28T16:31:32.229Z,47.83
2022-07-28T16:34:00.541Z,40.85
2022-07-28T16:36:28.663Z,38.22
2022-07-28T16:39:00.181Z,30.83
2022-07-28T16:41:47.615Z,29.83
2022-07-28T16:44:19.206Z,23.35
2022-07-28T16:46:54.301Z,21.85
2022-07-28T16:49:24.238Z,17.45
2022-07-28T16:51:56.971Z,14.40
2022-07-28T16:54:28.643Z,11.70
2022-07-28T16:56:57.621Z,9.77
2022-07-28T16:59:37.058Z,11.73
2022-07-28T17:02:20.238Z,8.82
2022-07-28T17:04:50.949Z,12.73
2022-07-28T17:07:20.774Z,5.22
2022-07-28T17:09:51.715Z,8.32
2022-07-28T17:12:20.292Z,11.48
2022-07-28T17:14:51.062Z,7.38
2022-07-28T17:17:23.252Z,5.10
2022-07-28T17:19:53.628Z,3.67
2022-07-28T17:22:24.515Z,9.65
2022-07-28T17:24:55.204Z,8.07
2022-07-28T17:27:37.299Z,13.88
2022-07-28T17:30:09.686Z,11.65
2022-07-28T17:32:42.068Z,7.40
2022-07-28T17:35:31.588Z,9.20
2022-07-28T17:38:06.037Z,10.32
2022-07-28T17:40:38.961Z,6.35
2022-07-28T17:43:12.804Z,5.38
2022-07-28T17:45:46.101Z,6.07
2022-07-28T17:48:22.061Z,3.17
2022-07-28T17:50:52.837Z,5.25
2022-07-28T17:53:24.341Z,2.05
2022-07-28T17:56:00.039Z,5.20
2022-07-28T17:58:32.326Z,4.70
2022-07-28T18:01:11.183Z,7.15
2022-07-28T18:03:58.832Z,3.53
2022-07-28T18:06:35.559Z,5.68
2022-07-28T18:09:10.705Z,4.68
2022-07-28T18:11:55.763Z,4.63
2022-07-28T18:14:30.560Z,5.22
2022-07-28T18:17:02.303Z,7.28
2022-07-28T18:19:33.469Z,9.80
2022-07-28T18:22:06.237Z,5.72
2022-07-28T18:24:37.685Z,10.10
2022-07-28T18:27:07.388Z,11.57
2022-07-28T18:29:38.629Z,7.25
2022-07-28T18:32:12.578Z,16.33
2022-07-28T18:34:46.052Z,11.18
2022-07-28T18:37:14.755Z,8.70
2022-07-28T18:39:44.649Z,16.58
2022-07-28T18:42:16.986Z,9.85
2022-07-28T18:44:48.271Z,7.65
2022-07-28T18:47:16.567Z,13.52
2022-07-28T18:49:46.027Z,11.88
2022-07-28T18:52:16.692Z,7.15
2022-07-28T18:54:47.413Z,9.80
2022-07-28T18:57:18.490Z,3.00
2022-07-28T18:59:52.079Z,5.80
2022-07-28T19:04:59.984Z,14.95
2022-07-28T19:07:34.756Z,13.52
2022-07-28T19:10:09.980Z,14.48
2022-07-28T19:12:38.542Z,11.18
2022-07-28T19:15:08.232Z,12.95
2022-07-28T19:17:36.338Z,7.95
2022-07-28T19:20:11.102Z,7.05
2022-07-28T19:22:39.578Z,4.22
2022-07-28T19:25:09.224Z,4.57
2022-07-28T19:27:37.848Z,6.03
2022-07-28T19:30:08.899Z,4.85
2022-07-28T19:32:42.973Z,11.57
2022-07-28T19:35:14.563Z,16.50
2022-07-28T19:37:45.029Z,18.52
2022-07-28T19:40:15.495Z,17.08
2022-07-28T19:42:45.424Z,10.32
2022-07-28T19:45:14.202Z,16.90
2022-07-28T19:47:44.950Z,17.30
2022-07-28T19:50:17.353Z,19.27
2022-07-28T19:52:49.284Z,22.93
2022-07-28T19:55:18.991Z,33.58
2022-07-28T19:57:49.313Z,43.58
2022-07-28T20:00:18.583Z,46.85
2022-07-28T20:02:47.058Z,36.70
2022-07-28T20:05:18.325Z,33.10
2022-07-28T20:07:48.720Z,38.42
2022-07-28T20:10:17.411Z,39.65
2022-07-28T20:12:48.662Z,48.47
2022-07-28T20:15:17.024Z,41.08
2022-07-28T20:17:47.535Z,37.53
2022-07-28T20:20:25.575Z,33.45
2022-07-28T20:22:56.350Z,31.10
2022-07-28T20:25:26.355Z,18.55
2022-07-28T20:27:57.763Z,5.55
2022-07-28T20:30:27.764Z,13.70
2022-07-28T20:32:56.476Z,25.60
2022-07-28T20:35:29.444Z,17.85
2022-07-28T20:38:02.284Z,20.15
2022-07-28T20:40:33.208Z,15.98
2022-07-28T20:43:02.048Z,13.75
2022-07-28T20:45:31.948Z,14.65
2022-07-28T20:48:03.405Z,11.88
2022-07-28T20:50:35.222Z,12.95
2022-07-28T20:53:09.851Z,13.23
2022-07-28T20:55:40.168Z,17.42
2022-07-28T20:58:08.466Z,33.55
2022-07-28T21:00:39.559Z,28.35
2022-07-28T21:03:11.180Z,30.60
2022-07-28T21:05:43.141Z,29.50
2022-07-28T21:08:16.948Z,22.17
2022-07-28T21:10:49.185Z,31.73
2022-07-28T21:13:18.765Z,34.67
2022-07-28T21:15:47.086Z,15.15
2022-07-28T21:18:17.414Z,25.00
2022-07-28T21:20:48.524Z,21.55
2022-07-28T21:23:18.976Z,26.40
2022-07-28T21:25:49.662Z,27.52
2022-07-28T21:28:37.509Z,26.98
2022-07-28T21:31:10.436Z,34.42
2022-07-28T21:33:40.569Z,43.20
2022-07-28T21:36:11.696Z,58.17
2022-07-28T21:38:40.598Z,48.78
2022-07-28T21:41:09.899Z,36.72
2022-07-28T21:43:39.858Z,38.22
2022-07-28T21:46:08.444Z,35.63
2022-07-28T21:48:38.646Z,37.95
2022-07-28T21:51:14.840Z,27.88
2022-07-28T21:53:51.480Z,29.40
2022-07-28T21:56:24.056Z,27.58
2022-07-28T21:58:54.339Z,43.45
2022-07-28T22:01:25.973Z,35.28
2022-07-28T22:03:56.152Z,41.47
2022-07-28T22:06:26.789Z,40.08
2022-07-28T22:08:58.601Z,36.00
2022-07-28T22:11:28.023Z,35.33
2022-07-28T22:13:58.815Z,29.02
2022-07-28T22:16:30.305Z,39.35
2022-07-28T22:19:01.313Z,41.47
2022-07-28T22:21:33.072Z,51.72
2022-07-28T22:24:03.396Z,48.53
2022-07-28T22:26:34.567Z,39.58
2022-07-28T22:29:07.149Z,38.83
2022-07-28T22:31:38.823Z,57.73
2022-07-28T22:34:08.699Z,47.15
2022-07-28T22:36:39.204Z,59.05
2022-07-28T22:39:11.713Z,54.22
2022-07-28T22:41:41.992Z,46.47
2022-07-28T22:44:19.754Z,68.43
2022-07-28T22:46:50.990Z,63.65
2022-07-28T22:49:21.731Z,58.25
2022-07-28T22:51:53.849Z,62.25
2022-07-28T22:54:26.555Z,78.05
2022-07-28T22:56:58.150Z,81.07
2022-07-28T22:59:33.897Z,74.70
2022-07-28T23:02:11.670Z,77.15
2022-07-28T23:04:40.045Z,69.53
2022-07-28T23:07:17.949Z,57.28
2022-07-28T23:09:51.818Z,33.83
2022-07-28T23:12:20.475Z,18.38
2022-07-28T23:14:48.563Z,10.90
2022-07-28T23:17:16.860Z,8.77
2022-07-28T23:19:44.863Z,9.55
2022-07-28T23:22:12.903Z,7.43
2022-07-28T23:24:41.050Z,11.38
2022-07-28T23:27:10.399Z,7.28
2022-07-28T23:29:38.532Z,8.82
2022-07-28T23:32:12.657Z,7.53
2022-07-28T23:34:43.288Z,7.40
2022-07-28T23:37:11.898Z,6.03
2022-07-28T23:39:39.958Z,4.18
2022-07-28T23:42:08.418Z,6.55
2022-07-28T23:44:37.839Z,7.40
2022-07-28T23:47:06.256Z,6.97
2022-07-28T23:49:34.531Z,4.80
2022-07-28T23:52:02.811Z,5.75
2022-07-28T23:54:31.054Z,5.55
2022-07-28T23:56:59.186Z,2.42
2022-07-28T23:59:27.161Z,2.25
